Time;durP1;ratioP1;P1;durP2;ratioP2;P2;SDS_P1;SDS_P2;PMS_P1;PMS_P2;Temp;Humidity;BMP_temperature;BMP_pressure;BME280_temperature;BME280_humidity;BME280_pressure;Samples;Min_cycle;Max_cycle;Signal;HPM_P1;HPM_P2
2021/11/03 00:01:32;;;;;;;17.08;11.30;;;;;;;;;;5025888;28;20037;-93
2021/11/03 00:04:00;;;;;;;18.50;11.57;;;;;;;;;;5031131;28;20025;-93
2021/11/03 00:06:27;;;;;;;19.90;12.02;;;;;;;;;;5030612;28;20022;-94
2021/11/03 00:08:53;;;;;;;16.63;10.82;;;;;;;;;;5029836;28;20033;-94
2021/11/03 00:11:20;;;;;;;14.98;10.50;;;;;;;;;;5029409;28;20018;-94
2021/11/03 00:13:46;;;;;;;15.77;10.55;;;;;;;;;;5024306;28;20471;-93
2021/11/03 00:16:12;;;;;;;15.13;10.20;;;;;;;;;;5031579;28;20029;-93
2021/11/03 00:18:38;;;;;;;19.05;11.93;;;;;;;;;;5031288;28;20025;-94
2021/11/03 00:21:05;;;;;;;16.48;9.90;;;;;;;;;;5030836;28;20072;-92
2021/11/03 00:23:31;;;;;;;15.60;9.98;;;;;;;;;;5048921;28;20029;-93
2021/11/03 00:25:58;;;;;;;15.75;10.27;;;;;;;;;;5028814;28;20034;-94
2021/11/03 00:28:24;;;;;;;16.20;9.65;;;;;;;;;;5029763;28;20037;-93
2021/11/03 00:30:52;;;;;;;16.10;10.32;;;;;;;;;;5030692;28;20076;-93
2021/11/03 00:33:19;;;;;;;15.05;10.18;;;;;;;;;;5031447;28;20526;-93
2021/11/03 00:35:45;;;;;;;18.40;11.98;;;;;;;;;;5028444;28;20033;-94
2021/11/03 00:38:11;;;;;;;18.95;11.77;;;;;;;;;;5038040;28;20068;-93
2021/11/03 00:40:38;;;;;;;17.48;11.85;;;;;;;;;;5029019;28;20033;-95
2021/11/03 00:43:04;;;;;;;17.27;11.10;;;;;;;;;;5027434;28;20505;-93
2021/11/03 00:45:31;;;;;;;19.58;12.52;;;;;;;;;;5028422;28;20120;-94
2021/11/03 00:47:57;;;;;;;17.20;11.60;;;;;;;;;;5028415;28;20107;-93
2021/11/03 00:50:23;;;;;;;18.60;11.93;;;;;;;;;;5026997;28;20029;-93
2021/11/03 00:52:49;;;;;;;20.20;12.90;;;;;;;;;;5020297;28;20033;-95
2021/11/03 00:55:16;;;;;;;17.38;11.68;;;;;;;;;;5015319;28;20026;-93
2021/11/03 00:57:42;;;;;;;18.55;11.60;;;;;;;;;;5018217;28;20026;-93
2021/11/03 01:00:08;;;;;;;17.42;11.32;;;;;;;;;;5018793;28;20028;-92
2021/11/03 01:02:35;;;;;;;16.80;10.23;;;;;;;;;;5030263;28;20037;-93
2021/11/03 01:05:01;;;;;;;17.88;11.20;;;;;;;;;;5029959;28;20045;-93
2021/11/03 01:07:27;;;;;;;17.98;11.27;;;;;;;;;;5030071;28;20116;-95
2021/11/03 01:09:53;;;;;;;17.33;11.30;;;;;;;;;;5036831;28;20075;-93
2021/11/03 01:12:19;;;;;;;18.65;11.23;;;;;;;;;;5033498;28;20391;-93
2021/11/03 01:14:45;;;;;;;16.85;11.93;;;;;;;;;;5011071;28;20038;-93
2021/11/03 01:17:11;;;;;;;20.48;12.73;;;;;;;;;;5026477;28;20414;-93
2021/11/03 01:19:37;;;;;;;18.40;12.45;;;;;;;;;;5033136;28;20361;-93
2021/11/03 01:22:03;;;;;;;20.27;12.55;;;;;;;;;;5031213;28;20053;-94
2021/11/03 01:24:30;;;;;;;20.13;12.68;;;;;;;;;;5022496;28;20485;-94
2021/11/03 01:26:56;;;;;;;17.80;12.55;;;;;;;;;;5028452;28;20033;-94
2021/11/03 01:29:22;;;;;;;22.80;14.15;;;;;;;;;;5018279;28;20490;-93
2021/11/03 01:31:49;;;;;;;21.30;13.25;;;;;;;;;;5030009;28;20518;-94
2021/11/03 01:34:15;;;;;;;31.10;13.95;;;;;;;;;;5012889;28;20116;-95
2021/11/03 01:36:41;;;;;;;29.35;14.13;;;;;;;;;;5019754;28;20026;-95
2021/11/03 01:39:07;;;;;;;29.38;14.55;;;;;;;;;;5021313;28;20022;-91
2021/11/03 01:41:34;;;;;;;19.80;12.32;;;;;;;;;;5012678;28;20034;-92
2021/11/03 01:44:01;;;;;;;22.15;11.85;;;;;;;;;;5023777;28;20434;-93
2021/11/03 01:46:29;;;;;;;19.35;12.23;;;;;;;;;;5030053;28;20124;-94
2021/11/03 01:49:04;;;;;;;24.08;12.20;;;;;;;;;;5030409;28;20045;-93
2021/11/03 01:51:48;;;;;;;20.50;12.27;;;;;;;;;;5029355;28;20021;-94
2021/11/03 01:54:16;;;;;;;29.75;13.00;;;;;;;;;;5030605;28;20052;-94
2021/11/03 01:56:43;;;;;;;19.63;11.65;;;;;;;;;;5030555;28;20124;-94
2021/11/03 01:59:15;;;;;;;17.98;11.88;;;;;;;;;;5030548;28;20018;-94
2021/11/03 02:01:46;;;;;;;18.02;11.73;;;;;;;;;;5014659;28;20033;-95
2021/11/03 02:04:12;;;;;;;18.17;12.30;;;;;;;;;;5010536;28;20025;-95
2021/11/03 02:06:38;;;;;;;17.20;11.48;;;;;;;;;;5032708;28;20065;-94
2021/11/03 02:09:05;;;;;;;17.67;12.15;;;;;;;;;;5037116;28;20026;-93
2021/11/03 02:11:31;;;;;;;17.13;11.88;;;;;;;;;;5021929;28;20340;-93
2021/11/03 02:13:58;;;;;;;19.45;11.88;;;;;;;;;;5026341;28;20044;-94
2021/11/03 02:16:25;;;;;;;18.40;12.43;;;;;;;;;;5030694;28;20025;-94
2021/11/03 02:18:53;;;;;;;18.55;12.35;;;;;;;;;;5030937;28;20156;-94
2021/11/03 02:21:28;;;;;;;21.35;12.40;;;;;;;;;;5024697;28;20068;-93
2021/11/03 02:24:15;;;;;;;18.20;11.73;;;;;;;;;;5016304;28;20030;-93
2021/11/03 02:26:43;;;;;;;18.90;12.82;;;;;;;;;;5038675;28;20025;-93
2021/11/03 02:29:11;;;;;;;19.85;13.18;;;;;;;;;;5045783;28;20053;-94
2021/11/03 02:31:37;;;;;;;18.70;12.63;;;;;;;;;;5033816;28;20030;-94
2021/11/03 02:34:04;;;;;;;22.75;13.25;;;;;;;;;;5028627;28;20491;-93
2021/11/03 02:36:30;;;;;;;19.30;12.32;;;;;;;;;;5026465;28;20093;-94
2021/11/03 02:38:59;;;;;;;21.23;13.52;;;;;;;;;;5033710;28;20051;-94
2021/11/03 02:41:27;;;;;;;21.02;12.38;;;;;;;;;;5038649;28;20041;-94
2021/11/03 02:43:56;;;;;;;21.30;13.38;;;;;;;;;;5037695;28;20038;-94
2021/11/03 02:46:22;;;;;;;18.63;11.85;;;;;;;;;;5014446;28;20029;-94
2021/11/03 02:48:48;;;;;;;16.98;11.52;;;;;;;;;;5025761;28;20029;-94
2021/11/03 02:51:14;;;;;;;20.38;12.23;;;;;;;;;;5028819;28;20025;-93
2021/11/03 02:53:45;;;;;;;18.33;11.32;;;;;;;;;;5014042;28;20408;-95
2021/11/03 02:56:12;;;;;;;16.90;11.55;;;;;;;;;;5013230;28;20414;-95
2021/11/03 02:58:38;;;;;;;16.88;11.98;;;;;;;;;;5013641;28;20110;-93
2021/11/03 03:01:16;;;;;;;18.58;11.63;;;;;;;;;;5020480;28;20049;-94
2021/11/03 03:03:45;;;;;;;23.90;12.93;;;;;;;;;;5036978;28;20030;-94
2021/11/03 03:06:12;;;;;;;17.83;10.98;;;;;;;;;;5027557;28;20121;-94
2021/11/03 03:08:38;;;;;;;19.00;12.57;;;;;;;;;;5027359;28;20124;-93
2021/11/03 03:11:05;;;;;;;22.98;11.88;;;;;;;;;;5036541;28;20045;-94
2021/11/03 03:13:32;;;;;;;17.45;11.55;;;;;;;;;;5035336;28;20032;-93
2021/11/03 03:15:58;;;;;;;21.30;11.50;;;;;;;;;;5035418;28;20021;-93
2021/11/03 03:18:24;;;;;;;25.48;13.40;;;;;;;;;;5032589;28;20025;-93
2021/11/03 03:20:50;;;;;;;20.33;13.38;;;;;;;;;;5027570;28;20038;-94
2021/11/03 03:23:17;;;;;;;26.58;14.75;;;;;;;;;;5015229;28;20026;-93
2021/11/03 03:25:44;;;;;;;45.00;16.00;;;;;;;;;;5014998;28;20030;-94
2021/11/03 03:28:28;;;;;;;20.58;13.70;;;;;;;;;;5033020;28;20025;-94
2021/11/03 03:30:55;;;;;;;19.23;13.07;;;;;;;;;;5048153;28;20026;-94
2021/11/03 03:33:21;;;;;;;24.98;13.75;;;;;;;;;;5015370;28;20022;-93
2021/11/03 03:35:49;;;;;;;28.13;14.43;;;;;;;;;;5028514;28;20036;-94
2021/11/03 03:38:15;;;;;;;20.27;13.68;;;;;;;;;;5036013;28;20029;-94
2021/11/03 03:40:41;;;;;;;31.42;13.68;;;;;;;;;;5034651;28;20025;-93
2021/11/03 03:43:07;;;;;;;24.55;13.60;;;;;;;;;;5037784;28;20064;-92
2021/11/03 03:45:33;;;;;;;22.75;12.85;;;;;;;;;;5034839;28;20021;-93
2021/11/03 03:47:59;;;;;;;19.80;12.48;;;;;;;;;;5034708;28;20468;-94
2021/11/03 03:50:25;;;;;;;19.38;12.55;;;;;;;;;;5033414;28;20053;-93
2021/11/03 03:52:51;;;;;;;17.42;11.60;;;;;;;;;;5037058;28;20026;-94
2021/11/03 03:55:17;;;;;;;19.92;11.30;;;;;;;;;;5021065;28;20034;-93
2021/11/03 03:57:43;;;;;;;18.27;11.27;;;;;;;;;;5045439;28;20029;-94
2021/11/03 04:00:13;;;;;;;17.02;11.80;;;;;;;;;;5041188;28;20562;-94
2021/11/03 04:02:40;;;;;;;17.45;11.18;;;;;;;;;;5031509;28;20049;-94
2021/11/03 04:05:06;;;;;;;21.20;12.13;;;;;;;;;;5029467;28;20468;-94
2021/11/03 04:07:32;;;;;;;19.02;11.63;;;;;;;;;;5021359;28;20511;-93
2021/11/03 04:09:58;;;;;;;18.05;10.75;;;;;;;;;;5030398;28;20029;-94
2021/11/03 04:12:24;;;;;;;17.60;11.10;;;;;;;;;;5028756;28;20116;-94
2021/11/03 04:14:50;;;;;;;16.85;11.25;;;;;;;;;;5030353;28;20122;-94
2021/11/03 04:17:16;;;;;;;17.83;11.98;;;;;;;;;;5029150;28;20037;-95
2021/11/03 04:19:42;;;;;;;16.20;11.30;;;;;;;;;;5027275;28;20030;-94
2021/11/03 04:22:10;;;;;;;17.77;11.15;;;;;;;;;;5027894;28;20128;-94
2021/11/03 04:24:38;;;;;;;15.30;10.52;;;;;;;;;;5027366;28;20029;-94
2021/11/03 04:27:05;;;;;;;17.02;11.40;;;;;;;;;;5013796;28;20037;-94
2021/11/03 04:29:31;;;;;;;15.70;10.70;;;;;;;;;;5026279;28;20018;-94
2021/11/03 04:31:57;;;;;;;16.55;10.95;;;;;;;;;;5021659;28;20030;-94
2021/11/03 04:34:23;;;;;;;18.13;11.98;;;;;;;;;;5026333;28;20021;-95
2021/11/03 04:36:50;;;;;;;22.70;13.48;;;;;;;;;;5018467;28;20025;-94
2021/11/03 04:39:18;;;;;;;22.25;13.82;;;;;;;;;;5023757;28;20047;-94
2021/11/03 04:41:45;;;;;;;21.27;14.45;;;;;;;;;;5016283;28;20049;-95
2021/11/03 04:44:11;;;;;;;21.98;14.73;;;;;;;;;;5029042;28;20032;-94
2021/11/03 04:46:37;;;;;;;20.83;12.93;;;;;;;;;;5028809;28;20026;-94
2021/11/03 04:49:04;;;;;;;17.92;11.20;;;;;;;;;;5027528;28;20026;-95
2021/11/03 04:51:30;;;;;;;19.15;13.05;;;;;;;;;;5031113;28;20026;-94
2021/11/03 04:53:56;;;;;;;19.85;12.63;;;;;;;;;;5020034;28;20022;-94
2021/11/03 04:56:24;;;;;;;20.80;13.18;;;;;;;;;;5019149;28;20100;-92
2021/11/03 04:58:51;;;;;;;21.38;14.10;;;;;;;;;;5031436;28;20048;-94
2021/11/03 05:01:22;;;;;;;19.10;13.20;;;;;;;;;;5030606;28;20032;-93
2021/11/03 05:03:52;;;;;;;21.40;13.57;;;;;;;;;;5031547;28;20040;-92
2021/11/03 05:06:20;;;;;;;19.80;13.13;;;;;;;;;;5038857;28;20021;-94
2021/11/03 05:08:47;;;;;;;18.00;12.27;;;;;;;;;;5051245;28;20025;-94
2021/11/03 05:11:13;;;;;;;20.08;11.70;;;;;;;;;;5050636;28;20028;-93
2021/11/03 05:13:39;;;;;;;16.17;11.40;;;;;;;;;;5048240;28;20034;-94
2021/11/03 05:16:05;;;;;;;18.35;11.90;;;;;;;;;;5030125;28;20032;-93
2021/11/03 05:18:32;;;;;;;20.73;14.15;;;;;;;;;;5030291;28;20075;-93
2021/11/03 05:20:58;;;;;;;22.80;14.75;;;;;;;;;;5029794;28;20400;-94
2021/11/03 05:23:27;;;;;;;21.02;12.52;;;;;;;;;;5030051;28;20132;-93
2021/11/03 05:25:53;;;;;;;30.08;15.77;;;;;;;;;;5015497;28;20029;-93
2021/11/03 05:28:20;;;;;;;29.02;15.00;;;;;;;;;;5030535;28;20033;-93
2021/11/03 05:30:46;;;;;;;36.53;16.50;;;;;;;;;;5015869;28;20018;-94
2021/11/03 05:33:12;;;;;;;46.33;17.23;;;;;;;;;;5025264;28;20049;-92
2021/11/03 05:35:38;;;;;;;47.10;17.73;;;;;;;;;;5029923;28;20025;-94
2021/11/03 05:38:04;;;;;;;32.40;16.67;;;;;;;;;;5030524;28;20033;-94
2021/11/03 05:40:30;;;;;;;51.00;19.23;;;;;;;;;;5038858;28;20026;-96
2021/11/03 05:42:57;;;;;;;36.83;17.60;;;;;;;;;;5044127;28;20071;-95
2021/11/03 05:45:23;;;;;;;49.83;18.83;;;;;;;;;;5055459;28;20025;-95
2021/11/03 05:47:49;;;;;;;42.72;18.70;;;;;;;;;;5053105;28;20185;-96
2021/11/03 05:50:17;;;;;;;51.97;20.73;;;;;;;;;;5053237;28;20116;-95
2021/11/03 05:52:44;;;;;;;41.47;19.10;;;;;;;;;;5027746;28;20031;-96
2021/11/03 05:55:11;;;;;;;40.00;18.40;;;;;;;;;;5034579;28;20309;-96
2021/11/03 05:57:38;;;;;;;59.13;20.90;;;;;;;;;;5039695;28;20034;-95
2021/11/03 06:00:09;;;;;;;39.40;19.73;;;;;;;;;;5038117;28;20025;-96
2021/11/03 06:02:35;;;;;;;42.15;19.65;;;;;;;;;;5041566;28;20034;-96
2021/11/03 06:05:01;;;;;;;35.03;17.60;;;;;;;;;;5039193;28;20030;-96
2021/11/03 06:07:27;;;;;;;34.28;17.45;;;;;;;;;;5037099;28;20036;-96
2021/11/03 06:09:54;;;;;;;39.90;19.38;;;;;;;;;;5041164;28;20060;-96
2021/11/03 06:12:20;;;;;;;53.97;25.23;;;;;;;;;;5037485;28;20026;-96
2021/11/03 06:14:46;;;;;;;37.13;18.75;;;;;;;;;;5042286;28;20522;-95
2021/11/03 06:17:12;;;;;;;38.45;19.13;;;;;;;;;;5042136;28;20131;-96
2021/11/03 06:19:38;;;;;;;37.08;16.25;;;;;;;;;;5046116;28;20052;-96
2021/11/03 06:22:04;;;;;;;28.20;15.07;;;;;;;;;;5038859;28;20049;-95
2021/11/03 06:24:32;;;;;;;27.80;15.20;;;;;;;;;;5040191;28;20085;-96
2021/11/03 06:26:58;;;;;;;42.72;17.45;;;;;;;;;;5036466;28;20044;-96
2021/11/03 06:29:24;;;;;;;36.60;17.00;;;;;;;;;;5017528;28;20026;-96
2021/11/03 06:31:50;;;;;;;34.85;15.43;;;;;;;;;;5028697;28;20464;-96
2021/11/03 06:34:16;;;;;;;33.03;15.88;;;;;;;;;;5036586;28;20044;-96
2021/11/03 06:36:42;;;;;;;32.72;17.10;;;;;;;;;;5036623;28;20026;-96
2021/11/03 06:39:09;;;;;;;26.30;13.63;;;;;;;;;;5032128;28;20026;-96
2021/11/03 06:41:36;;;;;;;42.35;15.70;;;;;;;;;;5034172;28;20483;-96
2021/11/03 06:44:02;;;;;;;43.53;16.75;;;;;;;;;;5037176;28;20048;-95
2021/11/03 06:46:28;;;;;;;36.20;16.17;;;;;;;;;;5035109;28;20026;-96
2021/11/03 06:48:55;;;;;;;43.88;17.85;;;;;;;;;;5036211;28;20037;-96
2021/11/03 06:51:21;;;;;;;42.35;16.92;;;;;;;;;;5037466;28;20052;-96
2021/11/03 06:53:47;;;;;;;41.78;16.73;;;;;;;;;;5042362;28;20025;-96
2021/11/03 06:56:13;;;;;;;58.63;21.73;;;;;;;;;;5021162;28;20041;-96
2021/11/03 06:58:40;;;;;;;43.92;17.23;;;;;;;;;;5036885;28;20093;-95
2021/11/03 07:01:08;;;;;;;63.55;20.00;;;;;;;;;;5038966;28;20037;-96
2021/11/03 07:03:35;;;;;;;46.53;18.75;;;;;;;;;;5038994;28;20029;-96
2021/11/03 07:06:01;;;;;;;41.80;19.05;;;;;;;;;;5039649;28;20036;-96
2021/11/03 07:08:27;;;;;;;57.20;20.70;;;;;;;;;;5037996;28;20472;-96
2021/11/03 07:10:55;;;;;;;54.17;20.23;;;;;;;;;;5035984;28;20502;-96
2021/11/03 07:13:22;;;;;;;59.17;22.08;;;;;;;;;;5042333;28;20097;-96
2021/11/03 07:15:48;;;;;;;52.90;22.02;;;;;;;;;;5048867;28;20052;-95
2021/11/03 07:18:14;;;;;;;62.25;22.38;;;;;;;;;;5050070;28;20044;-94
2021/11/03 07:20:45;;;;;;;51.45;21.08;;;;;;;;;;5046043;28;20045;-96
2021/11/03 07:23:16;;;;;;;54.40;23.17;;;;;;;;;;5046057;28;20075;-96
2021/11/03 07:25:45;;;;;;;52.53;21.75;;;;;;;;;;5043081;28;20030;-96
2021/11/03 07:28:11;;;;;;;57.75;21.58;;;;;;;;;;5045310;28;20116;-96
2021/11/03 07:30:38;;;;;;;55.38;23.52;;;;;;;;;;5048400;28;20045;-96
2021/11/03 07:33:05;;;;;;;52.15;21.60;;;;;;;;;;5045630;28;20108;-96
2021/11/03 07:35:31;;;;;;;59.13;23.13;;;;;;;;;;5047018;28;20487;-95
2021/11/03 07:38:07;;;;;;;46.10;20.70;;;;;;;;;;5047191;28;20025;-96
2021/11/03 07:40:43;;;;;;;47.25;20.08;;;;;;;;;;5048893;28;20091;-96
2021/11/03 07:43:11;;;;;;;48.25;19.67;;;;;;;;;;5050378;28;20090;-96
2021/11/03 07:45:39;;;;;;;43.65;20.73;;;;;;;;;;5052176;28;20018;-96
2021/11/03 07:48:08;;;;;;;48.63;20.17;;;;;;;;;;5048161;28;20067;-96
2021/11/03 07:50:39;;;;;;;39.33;18.60;;;;;;;;;;5046930;28;20057;-96
2021/11/03 07:53:08;;;;;;;51.83;20.92;;;;;;;;;;5049965;28;20037;-96
2021/11/03 07:55:39;;;;;;;39.63;18.67;;;;;;;;;;5046185;28;20426;-96
2021/11/03 07:58:11;;;;;;;39.35;18.80;;;;;;;;;;5051258;28;20026;-96
2021/11/03 08:00:41;;;;;;;35.45;16.98;;;;;;;;;;5052000;28;20029;-96
2021/11/03 08:03:07;;;;;;;31.40;16.23;;;;;;;;;;5043930;28;20049;-96
2021/11/03 08:05:37;;;;;;;30.35;15.70;;;;;;;;;;5051739;28;20018;-96
2021/11/03 08:08:12;;;;;;;30.25;14.88;;;;;;;;;;5049477;28;20017;-96
2021/11/03 08:10:46;;;;;;;31.83;16.55;;;;;;;;;;5047982;28;20030;-96
2021/11/03 08:13:17;;;;;;;29.33;15.32;;;;;;;;;;5045999;28;20089;-96
2021/11/03 08:15:47;;;;;;;29.65;15.43;;;;;;;;;;5046742;28;20025;-95
2021/11/03 08:18:32;;;;;;;28.13;15.10;;;;;;;;;;5047412;28;20021;-96
2021/11/03 08:21:09;;;;;;;24.50;12.85;;;;;;;;;;5048693;28;20073;-96
2021/11/03 08:23:42;;;;;;;28.65;13.75;;;;;;;;;;5046900;28;20483;-96
2021/11/03 08:26:08;;;;;;;28.67;15.98;;;;;;;;;;5046187;28;20029;-96
2021/11/03 08:28:38;;;;;;;29.48;15.43;;;;;;;;;;5044471;28;20069;-96
2021/11/03 08:31:04;;;;;;;29.58;14.88;;;;;;;;;;5048089;28;20031;-96
2021/11/03 08:33:44;;;;;;;28.08;15.32;;;;;;;;;;5047366;28;20029;-96
2021/11/03 08:36:13;;;;;;;31.20;14.63;;;;;;;;;;5049029;28;20092;-96
2021/11/03 08:38:39;;;;;;;30.17;14.70;;;;;;;;;;5045693;28;20189;-96
2021/11/03 08:41:07;;;;;;;30.02;16.17;;;;;;;;;;5047160;28;20068;-96
2021/11/03 08:43:34;;;;;;;30.13;17.08;;;;;;;;;;5047308;28;20033;-96
2021/11/03 08:46:00;;;;;;;32.75;16.90;;;;;;;;;;5025903;28;20037;-96
2021/11/03 08:48:29;;;;;;;29.60;16.48;;;;;;;;;;5044935;28;20097;-96
2021/11/03 08:50:56;;;;;;;29.58;15.95;;;;;;;;;;5045100;28;20041;-96
2021/11/03 08:56:22;;;;;;;31.50;19.30;;;;;;;;;;5030236;28;20062;-96
2021/11/03 08:58:49;;;;;;;32.33;16.67;;;;;;;;;;5028825;28;20012;-96
2021/11/03 09:01:27;;;;;;;29.13;16.00;;;;;;;;;;5029416;28;20030;-96
2021/11/03 09:03:53;;;;;;;27.83;15.93;;;;;;;;;;5045123;28;20113;-96
2021/11/03 09:06:20;;;;;;;29.85;16.17;;;;;;;;;;5048816;28;20026;-96
2021/11/03 09:08:51;;;;;;;32.88;15.30;;;;;;;;;;5048211;28;20018;-96
2021/11/03 09:11:20;;;;;;;26.17;15.40;;;;;;;;;;5048367;28;20026;-96
2021/11/03 09:13:46;;;;;;;25.17;14.90;;;;;;;;;;5046457;28;20025;-96
2021/11/03 09:16:14;;;;;;;32.20;18.33;;;;;;;;;;5046344;28;20041;-96
2021/11/03 09:18:45;;;;;;;31.88;17.10;;;;;;;;;;5046910;28;20041;-96
2021/11/03 09:21:27;;;;;;;22.80;14.18;;;;;;;;;;5048735;28;20053;-96
2021/11/03 09:23:53;;;;;;;24.67;14.90;;;;;;;;;;5050660;28;20029;-96
2021/11/03 09:26:26;;;;;;;24.13;15.27;;;;;;;;;;5052269;28;20033;-96
2021/11/03 09:28:52;;;;;;;23.17;14.68;;;;;;;;;;5051939;28;20073;-95
2021/11/03 09:31:24;;;;;;;24.92;14.85;;;;;;;;;;5051712;28;20034;-95
2021/11/03 09:33:59;;;;;;;26.00;14.55;;;;;;;;;;5051147;28;20033;-96
2021/11/03 09:36:34;;;;;;;22.50;14.55;;;;;;;;;;5034886;28;20040;-96
2021/11/03 09:39:02;;;;;;;22.92;14.73;;;;;;;;;;5048266;28;20049;-95
2021/11/03 09:41:47;;;;;;;31.27;15.73;;;;;;;;;;5050985;28;20033;-96
2021/11/03 09:44:22;;;;;;;22.40;13.48;;;;;;;;;;5011835;28;20048;-96
2021/11/03 09:46:59;;;;;;;26.40;15.15;;;;;;;;;;5047346;28;20056;-96
2021/11/03 09:49:36;;;;;;;23.45;16.20;;;;;;;;;;5045952;28;20061;-96
2021/11/03 09:52:40;;;;;;;;;;;;;;;;;;;;;
2021/11/03 09:55:39;;;;;;;18.63;12.57;;;;;;;;;;4995784;28;20058;-96
2021/11/03 09:58:19;;;;;;;18.92;13.77;;;;;;;;;;5008085;28;20058;-96
2021/11/03 10:00:56;;;;;;;19.77;13.15;;;;;;;;;;4962476;28;20045;-96
2021/11/03 10:03:31;;;;;;;19.17;13.63;;;;;;;;;;4985963;28;20051;-96
2021/11/03 10:06:05;;;;;;;19.63;13.40;;;;;;;;;;4989292;28;20043;-96
2021/11/03 10:08:41;;;;;;;20.45;12.15;;;;;;;;;;4989628;28;20022;-96
2021/11/03 10:11:17;;;;;;;18.67;13.07;;;;;;;;;;5005503;28;20053;-96
2021/11/03 10:13:45;;;;;;;14.98;11.45;;;;;;;;;;4992697;28;20066;-96
2021/11/03 10:16:24;;;;;;;16.10;11.73;;;;;;;;;;4989527;28;20128;-96
2021/11/03 10:19:09;;;;;;;14.98;11.18;;;;;;;;;;4991537;28;20026;-96
2021/11/03 10:21:40;;;;;;;22.20;13.25;;;;;;;;;;4988312;28;20089;-96
2021/11/03 10:24:12;;;;;;;15.90;11.43;;;;;;;;;;4989458;28;20106;-96
2021/11/03 10:26:56;;;;;;;17.25;12.65;;;;;;;;;;4988440;28;20022;-96
2021/11/03 10:29:37;;;;;;;16.85;10.93;;;;;;;;;;4988447;28;20038;-96
2021/11/03 10:32:12;;;;;;;14.57;10.80;;;;;;;;;;4988638;28;20103;-96
2021/11/03 10:34:59;;;;;;;;;;;;;;;;;;;;;
2021/11/03 10:37:36;;;;;;;16.17;10.45;;;;;;;;;;5047230;28;20049;-96
2021/11/03 10:40:27;;;;;;;14.85;11.07;;;;;;;;;;5028365;28;20117;-96
2021/11/03 10:43:00;;;;;;;15.18;9.48;;;;;;;;;;5029219;28;20065;-96
2021/11/03 10:45:33;;;;;;;13.60;9.80;;;;;;;;;;5039477;28;20045;-96
2021/11/03 10:48:20;;;;;;;14.07;10.35;;;;;;;;;;5048288;28;20038;-95
2021/11/03 10:51:01;;;;;;;11.93;9.27;;;;;;;;;;5030331;28;20022;-96
2021/11/03 10:53:40;;;;;;;12.98;9.60;;;;;;;;;;5027291;28;20025;-96
2021/11/03 10:56:41;;;;;;;13.05;8.63;;;;;;;;;;5025022;28;20025;-95
2021/11/03 10:59:17;;;;;;;11.55;8.07;;;;;;;;;;4995722;28;20098;-96
2021/11/03 11:01:50;;;;;;;11.45;8.43;;;;;;;;;;5044673;28;20140;-94
2021/11/03 11:04:16;;;;;;;10.95;8.60;;;;;;;;;;5048310;28;20061;-95
2021/11/03 11:06:51;;;;;;;11.45;8.05;;;;;;;;;;5024627;28;20029;-96
2021/11/03 11:09:40;;;;;;;11.05;8.63;;;;;;;;;;5042641;28;20038;-96
2021/11/03 11:12:19;;;;;;;10.18;7.80;;;;;;;;;;5042807;28;20025;-96
2021/11/03 11:14:48;;;;;;;14.82;8.77;;;;;;;;;;5029250;28;20022;-96
2021/11/03 11:17:27;;;;;;;10.68;7.07;;;;;;;;;;5019772;28;20025;-95
2021/11/03 11:19:53;;;;;;;10.25;7.00;;;;;;;;;;5039394;28;20060;-96
2021/11/03 11:22:37;;;;;;;8.52;7.32;;;;;;;;;;5038455;28;20107;-96
2021/11/03 11:25:03;;;;;;;10.50;7.38;;;;;;;;;;5031262;28;20561;-96
2021/11/03 11:27:48;;;;;;;9.70;6.53;;;;;;;;;;5041192;28;20534;-95
2021/11/03 11:30:17;;;;;;;10.23;7.00;;;;;;;;;;5040009;28;20030;-94
2021/11/03 11:33:04;;;;;;;10.63;7.50;;;;;;;;;;5039589;28;20033;-95
2021/11/03 11:35:42;;;;;;;36.00;12.93;;;;;;;;;;5036539;28;20023;-96
2021/11/03 11:38:22;;;;;;;9.90;7.65;;;;;;;;;;5038733;28;20026;-95
2021/11/03 11:40:51;;;;;;;12.02;7.40;;;;;;;;;;5037672;28;20131;-96
2021/11/03 11:43:58;;;;;;;9.85;7.22;;;;;;;;;;5042504;28;20093;-96
2021/11/03 11:46:27;;;;;;;11.20;7.00;;;;;;;;;;4977487;28;20456;-96
2021/11/03 11:49:01;;;;;;;11.85;7.60;;;;;;;;;;4962335;28;20038;-95
2021/11/03 11:51:32;;;;;;;10.40;6.57;;;;;;;;;;4963774;28;20035;-96
2021/11/03 11:54:00;;;;;;;10.27;6.78;;;;;;;;;;4976265;28;20089;-95
2021/11/03 11:56:29;;;;;;;10.05;6.93;;;;;;;;;;4960992;28;20173;-96
2021/11/03 11:58:56;;;;;;;9.23;6.43;;;;;;;;;;4960296;28;20085;-95
2021/11/03 12:01:31;;;;;;;10.73;6.80;;;;;;;;;;4962499;28;20026;-95
2021/11/03 12:04:02;;;;;;;9.48;6.78;;;;;;;;;;4961734;28;20462;-96
2021/11/03 12:06:44;;;;;;;9.93;6.40;;;;;;;;;;4957675;28;20110;-96
2021/11/03 12:09:25;;;;;;;10.68;7.00;;;;;;;;;;4960117;28;20035;-95
2021/11/03 12:11:51;;;;;;;10.95;6.78;;;;;;;;;;4960479;28;20143;-95
2021/11/03 12:14:36;;;;;;;11.18;6.72;;;;;;;;;;4958746;28;20062;-96
2021/11/03 12:17:11;;;;;;;11.05;6.75;;;;;;;;;;4985652;28;20037;-96
2021/11/03 12:19:37;;;;;;;9.18;6.93;;;;;;;;;;5017728;28;20030;-95
2021/11/03 12:22:06;;;;;;;9.48;6.43;;;;;;;;;;5034888;28;20045;-96
2021/11/03 12:24:43;;;;;;;11.98;7.43;;;;;;;;;;5033970;28;20502;-96
2021/11/03 12:27:30;;;;;;;9.50;7.22;;;;;;;;;;5032182;28;20040;-96
2021/11/03 12:29:58;;;;;;;12.07;6.90;;;;;;;;;;5035832;28;20071;-95
2021/11/03 12:32:40;;;;;;;10.50;7.28;;;;;;;;;;5032892;28;20029;-96
2021/11/03 12:35:26;;;;;;;12.60;7.18;;;;;;;;;;5038349;28;20028;-96
2021/11/03 12:37:52;;;;;;;13.32;7.60;;;;;;;;;;5032450;28;20053;-95
2021/11/03 12:40:25;;;;;;;9.77;7.15;;;;;;;;;;5033224;28;20036;-94
2021/11/03 12:43:03;;;;;;;13.23;8.32;;;;;;;;;;5036843;28;20065;-94
2021/11/03 12:45:37;;;;;;;11.85;6.88;;;;;;;;;;5037758;28;20037;-95
2021/11/03 12:48:04;;;;;;;11.88;6.75;;;;;;;;;;5039594;28;20033;-94
2021/11/03 12:50:38;;;;;;;12.38;7.20;;;;;;;;;;5040602;28;20396;-94
2021/11/03 12:53:14;;;;;;;10.73;7.18;;;;;;;;;;5021495;28;20030;-94
2021/11/03 12:55:51;;;;;;;12.15;7.70;;;;;;;;;;5022469;28;20026;-95
2021/11/03 12:58:44;;;;;;;10.32;6.60;;;;;;;;;;5037503;28;20033;-94
2021/11/03 13:01:21;;;;;;;8.50;6.43;;;;;;;;;;5032084;28;20037;-96
2021/11/03 13:03:55;;;;;;;10.20;6.40;;;;;;;;;;5035455;28;20116;-95
2021/11/03 13:06:25;;;;;;;8.68;6.70;;;;;;;;;;5037085;28;20032;-95
2021/11/03 13:08:51;;;;;;;11.55;6.53;;;;;;;;;;5037244;28;20083;-95
2021/11/03 13:11:22;;;;;;;10.98;6.70;;;;;;;;;;5035045;28;20095;-93
2021/11/03 13:13:48;;;;;;;11.15;6.43;;;;;;;;;;5034114;28;20145;-95
2021/11/03 13:16:17;;;;;;;12.45;6.80;;;;;;;;;;5036365;28;20029;-94
2021/11/03 13:18:44;;;;;;;8.95;5.90;;;;;;;;;;5036380;28;20621;-95
2021/11/03 13:21:46;;;;;;;9.35;6.35;;;;;;;;;;5042502;28;20113;-94
2021/11/03 13:24:13;;;;;;;15.48;7.50;;;;;;;;;;4983248;28;20026;-95
2021/11/03 13:26:41;;;;;;;12.07;7.10;;;;;;;;;;4968309;28;20059;-96
2021/11/03 13:29:08;;;;;;;8.90;5.65;;;;;;;;;;4962576;28;20050;-93
2021/11/03 13:31:40;;;;;;;10.20;6.45;;;;;;;;;;4964431;28;20098;-96
2021/11/03 13:34:12;;;;;;;8.52;6.00;;;;;;;;;;4966711;28;20070;-93
2021/11/03 13:36:39;;;;;;;8.95;5.72;;;;;;;;;;4969416;28;20620;-94
2021/11/03 13:39:14;;;;;;;8.98;5.70;;;;;;;;;;4962067;28;20838;-94
2021/11/03 13:41:46;;;;;;;10.60;5.35;;;;;;;;;;4958859;28;20038;-94
2021/11/03 13:44:22;;;;;;;7.57;4.97;;;;;;;;;;4960060;28;20031;-95
2021/11/03 13:46:52;;;;;;;11.18;5.78;;;;;;;;;;4959336;28;20070;-96
2021/11/03 13:49:20;;;;;;;7.82;5.57;;;;;;;;;;4961667;28;20568;-96
2021/11/03 13:51:48;;;;;;;8.95;5.43;;;;;;;;;;4961896;28;20039;-95
2021/11/03 13:54:19;;;;;;;9.70;5.47;;;;;;;;;;4984204;28;20042;-94
2021/11/03 13:56:53;;;;;;;6.93;5.03;;;;;;;;;;4968791;28;20058;-94
2021/11/03 13:59:40;;;;;;;9.65;5.55;;;;;;;;;;5019038;28;20045;-94
2021/11/03 14:02:06;;;;;;;9.48;5.25;;;;;;;;;;5040177;28;20045;-93
2021/11/03 14:04:39;;;;;;;8.65;5.00;;;;;;;;;;5040010;28;20044;-94
2021/11/03 14:07:20;;;;;;;7.47;4.90;;;;;;;;;;5036699;28;20060;-95
2021/11/03 14:09:50;;;;;;;13.25;6.03;;;;;;;;;;5042229;28;20079;-96
2021/11/03 14:12:18;;;;;;;8.63;5.60;;;;;;;;;;5041231;28;20036;-93
2021/11/03 14:14:49;;;;;;;12.25;5.88;;;;;;;;;;5056700;28;20494;-96
2021/11/03 14:17:21;;;;;;;9.57;5.53;;;;;;;;;;5045226;28;20029;-92
2021/11/03 14:19:53;;;;;;;8.93;5.22;;;;;;;;;;5036584;28;20352;-96
2021/11/03 14:22:27;;;;;;;9.65;5.72;;;;;;;;;;5043294;28;20053;-94
2021/11/03 14:24:58;;;;;;;9.80;5.55;;;;;;;;;;5043251;28;20030;-96
2021/11/03 14:27:31;;;;;;;8.30;5.15;;;;;;;;;;5025553;28;20034;-95
2021/11/03 14:29:57;;;;;;;9.45;5.90;;;;;;;;;;5057756;28;20033;-95
2021/11/03 14:32:25;;;;;;;10.35;5.85;;;;;;;;;;5065800;28;20040;-96
2021/11/03 14:34:54;;;;;;;7.68;5.82;;;;;;;;;;5040079;28;20029;-94
2021/11/03 14:37:20;;;;;;;9.35;5.38;;;;;;;;;;5049238;28;20109;-95
2021/11/03 14:39:55;;;;;;;9.73;5.82;;;;;;;;;;5064295;28;20104;-95
2021/11/03 14:42:24;;;;;;;8.40;5.00;;;;;;;;;;5046875;28;20057;-96
2021/11/03 14:44:51;;;;;;;9.27;5.22;;;;;;;;;;5042118;28;20025;-95